createdAt,value
2022-08-09T00:00:35.346Z,1.77
2022-08-09T00:04:10.049Z,2.03
2022-08-09T00:06:19.075Z,1.67
2022-08-09T00:08:48.565Z,1.73
2022-08-09T00:11:24.959Z,1.90
2022-08-09T00:13:55.790Z,2.03
2022-08-09T00:16:26.326Z,1.58
2022-08-09T00:19:09.534Z,2.10
2022-08-09T00:22:04.319Z,2.10
2022-08-09T00:24:32.598Z,1.73
2022-08-09T00:27:00.635Z,1.67
2022-08-09T00:29:39.085Z,1.80
2022-08-09T00:32:25.802Z,1.85
2022-08-09T00:34:55.334Z,1.63
2022-08-09T00:37:22.540Z,1.50
2022-08-09T00:40:12.498Z,1.67
2022-08-09T00:44:11.746Z,1.55
2022-08-09T00:45:26.332Z,1.52
2022-08-09T00:47:53.431Z,1.70
2022-08-09T00:50:24.030Z,1.50
2022-08-09T00:52:52.824Z,1.55
2022-08-09T00:56:02.999Z,1.70
2022-08-09T00:58:09.149Z,1.63
2022-08-09T01:00:40.656Z,1.43
2022-08-09T01:03:16.935Z,1.40
2022-08-09T01:05:54.554Z,1.77
2022-08-09T01:08:59.730Z,1.35
2022-08-09T01:14:42.984Z,1.33
2022-08-09T01:17:19.252Z,1.55
2022-08-09T01:20:02.106Z,1.95
2022-08-09T01:26:11.269Z,1.80
2022-08-09T01:28:45.920Z,1.63
2022-08-09T01:31:23.355Z,1.40
2022-08-09T01:34:10.718Z,1.95
2022-08-09T01:36:39.316Z,1.27
2022-08-09T01:39:07.229Z,1.42
2022-08-09T01:41:53.552Z,1.63
2022-08-09T01:44:29.144Z,1.50
2022-08-09T01:47:00.243Z,1.83
2022-08-09T01:49:38.822Z,1.45
2022-08-09T01:52:14.555Z,1.50
2022-08-09T01:54:53.866Z,1.37
2022-08-09T01:57:27.236Z,1.63
2022-08-09T02:00:09.127Z,1.52
2022-08-09T02:02:50.526Z,1.77
2022-08-09T02:05:20.972Z,1.60
2022-08-09T02:08:35.748Z,1.50
2022-08-09T02:11:16.778Z,1.80
2022-08-09T02:14:06.598Z,1.42
2022-08-09T02:17:15.378Z,1.60
2022-08-09T02:19:49.990Z,1.55
2022-08-09T02:22:31.468Z,1.60
2022-08-09T02:25:03.042Z,2.17
2022-08-09T02:27:58.106Z,2.25
2022-08-09T02:30:20.615Z,1.80
2022-08-09T02:32:49.128Z,2.10
2022-08-09T02:36:01.758Z,2.37
2022-08-09T02:38:22.178Z,2.58
2022-08-09T02:41:02.203Z,1.98
2022-08-09T02:43:54.345Z,1.92
2022-08-09T02:46:20.826Z,2.47
2022-08-09T02:48:51.097Z,2.17
2022-08-09T02:51:22.240Z,2.33
2022-08-09T02:54:00.664Z,2.45
2022-08-09T02:56:31.672Z,2.10
2022-08-09T02:59:04.990Z,2.63
2022-08-09T03:01:42.869Z,2.60
2022-08-09T03:04:26.205Z,2.58
2022-08-09T03:06:59.714Z,2.30
2022-08-09T03:09:42.854Z,2.00
2022-08-09T03:12:13.353Z,2.60
2022-08-09T03:14:42.865Z,2.37
2022-08-09T03:17:16.352Z,2.28
2022-08-09T03:19:58.556Z,2.75
2022-08-09T03:22:33.276Z,2.58
2022-08-09T03:25:26.989Z,2.72
2022-08-09T03:28:02.580Z,2.50
2022-08-09T03:30:34.233Z,2.65
2022-08-09T03:33:15.314Z,2.67
2022-08-09T03:36:13.666Z,2.50
2022-08-09T03:38:41.904Z,3.10
2022-08-09T03:41:15.175Z,2.80
2022-08-09T03:44:03.699Z,2.88
2022-08-09T03:46:31.949Z,2.60
2022-08-09T03:49:04.046Z,2.90
2022-08-09T03:51:56.910Z,2.45
2022-08-09T03:54:31.004Z,2.40
2022-08-09T03:57:18.777Z,2.42
2022-08-09T03:59:54.150Z,2.50
2022-08-09T04:02:28.197Z,2.78
2022-08-09T04:04:58.689Z,2.42
2022-08-09T04:10:29.386Z,2.22
2022-08-09T04:13:01.286Z,2.72
2022-08-09T04:15:52.437Z,2.65
2022-08-09T04:18:21.534Z,2.50
2022-08-09T04:20:50.120Z,2.20
2022-08-09T04:23:24.197Z,2.38
2022-08-09T04:25:53.086Z,2.85
2022-08-09T04:28:33.959Z,2.60
2022-08-09T04:31:07.808Z,2.75
2022-08-09T04:33:52.528Z,2.20
2022-08-09T04:36:26.425Z,2.92
2022-08-09T04:38:55.201Z,2.22
2022-08-09T04:41:24.426Z,2.78
2022-08-09T04:44:06.536Z,2.25
2022-08-09T04:46:38.282Z,2.47
2022-08-09T04:49:40.851Z,2.60
2022-08-09T04:52:18.352Z,2.38
2022-08-09T04:54:51.735Z,2.17
2022-08-09T04:57:23.729Z,2.30
2022-08-09T04:59:54.047Z,2.43
2022-08-09T05:02:22.166Z,2.63
2022-08-09T05:04:55.443Z,2.38
2022-08-09T05:07:24.486Z,2.30
2022-08-09T05:09:51.572Z,2.88
2022-08-09T05:12:19.025Z,2.40
2022-08-09T05:14:49.866Z,2.55
2022-08-09T05:18:55.160Z,3.03
2022-08-09T05:20:05.442Z,2.75
2022-08-09T05:22:35.985Z,2.83
2022-08-09T05:25:21.251Z,2.70
2022-08-09T05:27:50.787Z,2.60
2022-08-09T05:30:19.404Z,3.33
2022-08-09T05:32:53.154Z,3.17
2022-08-09T05:35:22.082Z,3.00
2022-08-09T05:37:51.057Z,2.87
2022-08-09T05:40:18.992Z,2.65
2022-08-09T05:42:46.965Z,2.85
2022-08-09T05:45:14.891Z,3.60
2022-08-09T05:47:52.163Z,3.75
2022-08-09T05:50:44.163Z,3.27
2022-08-09T05:53:31.588Z,3.22
2022-08-09T05:55:59.067Z,3.08
2022-08-09T05:58:26.758Z,3.13
2022-08-09T06:00:54.028Z,3.70
2022-08-09T06:03:21.149Z,3.30
2022-08-09T06:05:57.391Z,3.25
2022-08-09T06:08:31.935Z,3.45
2022-08-09T06:10:59.390Z,3.58
2022-08-09T06:13:28.641Z,3.53
2022-08-09T06:16:05.350Z,3.13
2022-08-09T06:18:33.659Z,3.40
2022-08-09T06:21:01.608Z,3.42
2022-08-09T06:23:58.050Z,3.40
2022-08-09T06:26:22.336Z,3.30
2022-08-09T06:32:18.393Z,3.00
2022-08-09T06:34:33.510Z,2.95
2022-08-09T06:37:00.709Z,2.63
2022-08-09T06:39:48.544Z,2.55
2022-08-09T06:42:24.487Z,2.20
2022-08-09T06:44:54.191Z,2.15
2022-08-09T06:47:22.389Z,2.47
2022-08-09T06:50:13.664Z,2.22
2022-08-09T06:52:47.086Z,1.98
2022-08-09T06:55:23.043Z,2.37
2022-08-09T06:58:03.014Z,2.45
2022-08-09T07:00:56.551Z,3.05
2022-08-09T07:03:20.299Z,2.45
2022-08-09T07:06:03.641Z,2.67
2022-08-09T07:08:33.775Z,2.60
2022-08-09T07:11:03.576Z,2.38
2022-08-09T07:14:05.733Z,2.67
2022-08-09T07:16:41.909Z,2.33
2022-08-09T07:19:06.132Z,3.28
2022-08-09T07:21:35.014Z,2.57
2022-08-09T07:24:05.085Z,2.95
2022-08-09T07:26:32.588Z,2.95
2022-08-09T07:29:11.914Z,2.67
2022-08-09T07:31:45.381Z,2.35
2022-08-09T07:34:20.524Z,4.27
2022-08-09T07:37:15.860Z,5.95
2022-08-09T07:39:43.887Z,3.42
2022-08-09T07:42:13.818Z,3.10
2022-08-09T07:44:52.540Z,3.33
2022-08-09T07:47:21.587Z,3.03
2022-08-09T07:50:05.227Z,2.83
2022-08-09T07:52:36.751Z,2.83
2022-08-09T07:55:08.828Z,2.47
2022-08-09T07:57:37.111Z,3.22
2022-08-09T08:00:20.499Z,3.30
2022-08-09T08:03:04.585Z,3.20
2022-08-09T08:05:53.565Z,3.20
2022-08-09T08:09:01.315Z,3.17
2022-08-09T08:12:09.150Z,3.50
2022-08-09T08:13:57.279Z,2.97
2022-08-09T08:16:29.457Z,2.97
2022-08-09T08:18:59.262Z,2.95
2022-08-09T08:21:26.623Z,2.78
2022-08-09T08:23:56.036Z,3.20
2022-08-09T08:26:26.315Z,3.10
2022-08-09T08:29:08.931Z,3.03
2022-08-09T08:31:56.494Z,3.30
2022-08-09T08:34:25.365Z,3.30
2022-08-09T08:36:52.816Z,3.30
2022-08-09T08:39:22.189Z,3.03
2022-08-09T08:41:52.390Z,3.78
2022-08-09T08:44:27.052Z,3.40
2022-08-09T08:47:00.049Z,3.75
2022-08-09T08:49:38.645Z,3.60
2022-08-09T08:52:57.475Z,3.07
2022-08-09T08:55:15.294Z,3.40
2022-08-09T08:57:57.490Z,3.00
2022-08-09T09:00:34.248Z,3.70
2022-08-09T09:03:12.120Z,3.65
2022-08-09T09:05:58.415Z,3.73
2022-08-09T09:08:32.035Z,3.80
2022-08-09T09:14:00.525Z,3.65
2022-08-09T09:16:32.330Z,3.90
2022-08-09T09:19:39.755Z,4.10
2022-08-09T09:22:15.905Z,3.75
2022-08-09T09:24:59.087Z,4.00
2022-08-09T09:28:05.478Z,3.97
2022-08-09T09:30:40.995Z,4.30
2022-08-09T09:33:15.396Z,3.63
2022-08-09T09:36:02.845Z,3.85
2022-08-09T09:38:48.499Z,3.95
2022-08-09T09:41:28.013Z,3.53
2022-08-09T09:44:11.598Z,4.65
2022-08-09T09:46:51.034Z,3.63
2022-08-09T09:49:31.874Z,3.80
2022-08-09T09:52:16.291Z,4.60
2022-08-09T09:55:16.256Z,3.33
2022-08-09T09:58:02.902Z,3.10
2022-08-09T10:00:33.544Z,3.33
2022-08-09T10:03:09.373Z,3.10
2022-08-09T10:06:04.240Z,3.17
2022-08-09T10:08:43.116Z,3.42
2022-08-09T10:11:59.834Z,3.88
2022-08-09T10:14:30.712Z,3.27
2022-08-09T10:17:39.150Z,3.10
2022-08-09T10:19:59.835Z,3.35
2022-08-09T10:22:36.093Z,3.58
2022-08-09T10:25:11.007Z,3.63
2022-08-09T10:27:55.847Z,3.53
2022-08-09T10:34:05.260Z,3.08
2022-08-09T10:36:09.424Z,3.05
2022-08-09T10:38:57.132Z,3.78
2022-08-09T10:41:27.843Z,3.63
2022-08-09T10:44:00.105Z,3.42
2022-08-09T10:46:55.653Z,3.97
2022-08-09T10:49:51.390Z,3.35
2022-08-09T10:52:43.036Z,3.80
2022-08-09T10:55:35.666Z,3.87
2022-08-09T10:58:33.860Z,3.60
2022-08-09T11:03:06.546Z,3.83
2022-08-09T11:04:29.675Z,4.60
2022-08-09T11:07:00.364Z,4.00
2022-08-09T11:09:48.137Z,4.13
2022-08-09T11:12:29.597Z,3.40
2022-08-09T11:18:12.820Z,4.43
2022-08-09T11:20:49.777Z,4.25
2022-08-09T11:23:24.000Z,3.77
2022-08-09T11:25:57.222Z,3.97
2022-08-09T11:28:56.542Z,4.50
2022-08-09T11:31:50.227Z,3.53
2022-08-09T11:34:41.708Z,3.75
2022-08-09T11:37:24.359Z,4.00
2022-08-09T11:40:06.445Z,4.10
2022-08-09T11:42:41.227Z,4.15
2022-08-09T11:45:20.056Z,3.83
2022-08-09T11:47:49.194Z,3.40
2022-08-09T11:50:54.922Z,3.50
2022-08-09T11:53:57.738Z,4.00
2022-08-09T11:56:02.917Z,4.35
2022-08-09T11:58:33.013Z,4.38
2022-08-09T12:01:08.756Z,4.25
2022-08-09T12:03:56.685Z,4.20
2022-08-09T12:06:31.973Z,4.18
2022-08-09T12:12:04.007Z,4.07
2022-08-09T12:14:40.543Z,3.95
2022-08-09T12:17:34.676Z,4.07
2022-08-09T12:20:21.331Z,4.32
2022-08-09T12:22:55.963Z,3.60
2022-08-09T12:25:35.930Z,3.70
2022-08-09T12:29:12.695Z,4.82
2022-08-09T12:31:01.705Z,4.00
2022-08-09T12:36:32.217Z,4.60
2022-08-09T12:39:01.578Z,4.20
2022-08-09T12:41:39.280Z,4.38
2022-08-09T12:44:10.095Z,4.40
2022-08-09T12:46:48.958Z,4.38
2022-08-09T12:49:18.272Z,4.07
2022-08-09T12:52:02.629Z,4.50
2022-08-09T12:56:11.727Z,4.40
2022-08-09T12:57:46.315Z,4.30
2022-08-09T13:00:25.825Z,4.18
2022-08-09T13:02:57.349Z,4.20
2022-08-09T13:05:27.542Z,4.40
2022-08-09T13:08:16.277Z,4.38
2022-08-09T13:10:52.758Z,3.80
2022-08-09T13:13:38.073Z,4.20
2022-08-09T13:16:17.720Z,4.10
2022-08-09T13:18:53.763Z,3.95
2022-08-09T13:22:36.326Z,4.68
2022-08-09T13:24:52.501Z,4.27
2022-08-09T13:27:06.008Z,4.60
2022-08-09T13:30:03.020Z,4.22
2022-08-09T13:32:28.892Z,3.95
2022-08-09T13:34:56.416Z,4.18
2022-08-09T13:37:24.817Z,4.10
2022-08-09T13:41:55.144Z,4.60
2022-08-09T13:43:00.489Z,4.13
2022-08-09T13:46:42.418Z,4.05
2022-08-09T13:48:19.524Z,4.53
2022-08-09T13:50:46.738Z,3.93
2022-08-09T13:53:16.597Z,3.95
2022-08-09T13:55:44.840Z,4.00
2022-08-09T13:58:15.127Z,4.03
2022-08-09T14:00:48.295Z,4.03
2022-08-09T14:04:01.398Z,4.30
2022-08-09T14:06:19.218Z,4.28
2022-08-09T14:08:53.583Z,4.20
2022-08-09T14:11:20.914Z,4.85
2022-08-09T14:14:23.330Z,4.50
2022-08-09T14:16:36.063Z,4.17
2022-08-09T14:19:04.246Z,4.45
2022-08-09T14:21:32.004Z,3.85
2022-08-09T14:26:52.082Z,4.00
2022-08-09T14:30:04.408Z,4.23
2022-08-09T14:32:11.188Z,4.10
2022-08-09T14:34:41.115Z,4.60
2022-08-09T14:37:09.663Z,4.03
2022-08-09T14:39:45.133Z,4.50
2022-08-09T14:42:30.899Z,4.50
2022-08-09T14:46:39.590Z,5.03
2022-08-09T14:47:57.017Z,4.78
2022-08-09T14:50:31.241Z,4.60
2022-08-09T14:53:11.284Z,4.65
2022-08-09T14:55:50.044Z,4.53
2022-08-09T14:58:18.336Z,4.50
2022-08-09T15:00:48.364Z,4.32
2022-08-09T15:03:20.204Z,3.50
2022-08-09T15:05:52.404Z,4.30
2022-08-09T15:08:24.253Z,4.60
2022-08-09T15:11:01.304Z,4.53
2022-08-09T15:13:29.940Z,4.63
2022-08-09T15:16:16.656Z,4.72
2022-08-09T15:18:43.857Z,4.72
2022-08-09T15:21:55.327Z,4.17
2022-08-09T15:24:13.960Z,4.38
2022-08-09T15:26:45.908Z,5.43
2022-08-09T15:30:48.738Z,4.82
2022-08-09T15:32:02.608Z,4.40
2022-08-09T15:34:34.248Z,4.60
2022-08-09T15:37:23.462Z,4.57
2022-08-09T15:39:54.909Z,4.95
2022-08-09T15:42:23.161Z,5.03
2022-08-09T15:44:51.361Z,5.05
2022-08-09T15:47:23.676Z,4.30
2022-08-09T15:50:08.637Z,4.40
2022-08-09T15:52:38.245Z,4.88
2022-08-09T15:55:09.042Z,3.97
2022-08-09T15:57:44.268Z,4.57
2022-08-09T16:00:25.942Z,4.90
2022-08-09T16:02:56.689Z,4.47
2022-08-09T16:05:47.541Z,4.45
2022-08-09T16:08:29.774Z,4.60
2022-08-09T16:11:02.870Z,4.40
2022-08-09T16:14:03.838Z,4.30
2022-08-09T16:16:19.070Z,4.07
2022-08-09T16:18:47.608Z,4.28
2022-08-09T16:21:17.764Z,4.20
2022-08-09T16:23:58.747Z,4.60
2022-08-09T16:26:35.683Z,4.00
2022-08-09T16:29:11.447Z,4.25
2022-08-09T16:32:20.235Z,4.43
2022-08-09T16:34:53.371Z,4.32
2022-08-09T16:37:50.609Z,4.05
2022-08-09T16:40:10.185Z,4.03
2022-08-09T16:42:38.364Z,4.22
2022-08-09T16:45:07.036Z,4.35
2022-08-09T16:48:40.588Z,4.60
2022-08-09T16:50:29.484Z,4.20
2022-08-09T16:53:00.935Z,4.37
2022-08-09T16:55:31.405Z,4.35
2022-08-09T16:58:17.436Z,4.32
2022-08-09T17:00:46.562Z,4.60
2022-08-09T17:03:21.704Z,4.30
2022-08-09T17:06:07.818Z,4.47
2022-08-09T17:09:01.396Z,4.45
2022-08-09T17:11:40.703Z,3.72
2022-08-09T17:14:26.312Z,4.03
2022-08-09T17:17:00.189Z,3.85
2022-08-09T17:19:47.424Z,3.90
2022-08-09T17:22:34.020Z,3.90
2022-08-09T17:25:10.061Z,4.07
2022-08-09T17:27:48.772Z,3.75
2022-08-09T17:30:17.178Z,3.88
2022-08-09T17:32:47.088Z,4.30
2022-08-09T17:35:15.266Z,4.35
2022-08-09T17:38:14.380Z,4.18
2022-08-09T17:40:33.841Z,3.38
2022-08-09T17:43:32.973Z,3.90
2022-08-09T17:46:03.517Z,3.90
2022-08-09T17:48:32.803Z,3.60
2022-08-09T17:51:09.726Z,3.50
2022-08-09T17:53:51.799Z,3.42
2022-08-09T17:56:22.014Z,3.50
2022-08-09T17:59:01.073Z,3.77
2022-08-09T18:01:58.055Z,4.32
2022-08-09T18:04:19.639Z,4.07
2022-08-09T18:06:54.127Z,4.03
2022-08-09T18:09:25.105Z,4.30
2022-08-09T18:12:05.674Z,4.23
2022-08-09T18:14:53.467Z,4.07
2022-08-09T18:17:27.188Z,3.90
2022-08-09T18:20:56.682Z,4.88
2022-08-09T18:22:56.533Z,4.50
2022-08-09T18:25:52.972Z,4.03
2022-08-09T18:28:21.589Z,4.95
2022-08-09T18:30:58.953Z,4.97
2022-08-09T18:33:26.237Z,5.28
2022-08-09T18:35:59.083Z,5.35
2022-08-09T18:38:28.431Z,5.27
2022-08-09T18:40:56.323Z,5.47
2022-08-09T18:43:25.002Z,5.88
2022-08-09T18:46:49.152Z,5.32
2022-08-09T18:48:39.313Z,5.60
2022-08-09T18:51:09.896Z,5.50
2022-08-09T18:53:56.307Z,5.85
2022-08-09T18:59:17.051Z,5.90
2022-08-09T19:01:46.649Z,6.15
2022-08-09T19:04:14.915Z,5.57
2022-08-09T19:06:50.469Z,6.57
2022-08-09T19:09:34.049Z,6.32
2022-08-09T19:12:07.573Z,7.40
2022-08-09T19:14:35.283Z,7.20
2022-08-09T19:17:03.811Z,6.60
2022-08-09T19:19:41.585Z,6.57
2022-08-09T19:22:09.385Z,6.35
2022-08-09T19:25:12.084Z,6.35
2022-08-09T19:27:28.478Z,6.90
2022-08-09T19:30:22.892Z,5.97
2022-08-09T19:32:44.693Z,6.47
2022-08-09T19:35:11.881Z,6.38
2022-08-09T19:37:56.319Z,6.63
2022-08-09T19:40:34.077Z,6.88
2022-08-09T19:43:09.963Z,6.50
2022-08-09T19:49:01.575Z,6.70
2022-08-09T19:51:17.607Z,5.97
2022-08-09T19:53:47.689Z,6.43
2022-08-09T19:56:15.676Z,6.20
2022-08-09T19:58:42.917Z,6.45
2022-08-09T20:01:47.756Z,5.93
2022-08-09T20:04:33.483Z,5.72
2022-08-09T20:07:06.424Z,5.97
2022-08-09T20:09:44.926Z,6.53
2022-08-09T20:12:31.683Z,6.55
2022-08-09T20:15:04.733Z,6.22
2022-08-09T20:17:54.702Z,6.32
2022-08-09T20:20:24.640Z,6.22
2022-08-09T20:22:56.353Z,5.50
2022-08-09T20:25:24.204Z,5.50
2022-08-09T20:27:53.073Z,6.07
2022-08-09T20:30:23.775Z,6.20
2022-08-09T20:32:52.303Z,6.47
2022-08-09T20:35:24.387Z,6.10
2022-08-09T20:38:23.811Z,5.93
2022-08-09T20:40:38.684Z,5.90
2022-08-09T20:43:18.249Z,5.90
2022-08-09T20:45:59.344Z,6.35
2022-08-09T20:48:31.993Z,5.53
2022-08-09T20:51:00.928Z,6.20
2022-08-09T20:53:36.329Z,5.60
2022-08-09T20:56:20.385Z,5.90
2022-08-09T20:58:54.757Z,7.13
2022-08-09T21:01:34.794Z,6.40
2022-08-09T21:05:51.580Z,5.90
2022-08-09T21:07:13.092Z,6.22
2022-08-09T21:09:55.276Z,6.18
2022-08-09T21:15:12.674Z,5.57
2022-08-09T21:18:11.026Z,4.30
2022-08-09T21:20:30.012Z,4.90
2022-08-09T21:23:01.250Z,4.82
2022-08-09T21:25:57.951Z,5.03
2022-08-09T21:28:34.675Z,4.03
2022-08-09T21:31:17.162Z,3.60
2022-08-09T21:33:50.974Z,3.30
2022-08-09T21:36:23.027Z,3.20
2022-08-09T21:38:57.366Z,3.50
2022-08-09T21:42:05.774Z,3.37
2022-08-09T21:44:33.181Z,2.90
2022-08-09T21:47:07.903Z,3.50
2022-08-09T21:49:39.429Z,3.08
2022-08-09T21:52:17.161Z,3.30
2022-08-09T21:54:56.889Z,2.90
2022-08-09T21:57:39.170Z,3.08
2022-08-09T22:00:25.269Z,2.72
2022-08-09T22:02:58.090Z,3.42
2022-08-09T22:05:36.858Z,3.20
2022-08-09T22:08:13.723Z,2.97
2022-08-09T22:11:04.961Z,2.92
2022-08-09T22:13:35.442Z,3.58
2022-08-09T22:16:07.745Z,2.97
2022-08-09T22:18:37.282Z,2.90
2022-08-09T22:21:09.940Z,3.07
2022-08-09T22:23:59.998Z,3.45
2022-08-09T22:26:34.988Z,3.20
2022-08-09T22:29:10.259Z,3.75
2022-08-09T22:31:50.538Z,3.08
2022-08-09T22:34:27.952Z,3.30
2022-08-09T22:39:57.723Z,3.70
2022-08-09T22:42:26.197Z,3.20
2022-08-09T22:45:18.472Z,3.08
2022-08-09T22:48:13.806Z,3.17
2022-08-09T22:50:31.191Z,3.42
2022-08-09T22:52:59.197Z,3.60
2022-08-09T22:55:39.635Z,3.78
2022-08-09T22:58:31.063Z,3.30
2022-08-09T23:01:05.619Z,3.63
2022-08-09T23:04:03.694Z,3.05
2022-08-09T23:06:32.689Z,3.88
2022-08-09T23:09:05.619Z,2.55
2022-08-09T23:11:32.815Z,3.42
2022-08-09T23:14:00.050Z,3.40
2022-08-09T23:16:27.199Z,3.53
2022-08-09T23:18:54.354Z,3.17
2022-08-09T23:21:25.306Z,4.18
2022-08-09T23:24:01.477Z,3.78
2022-08-09T23:26:37.388Z,3.40
2022-08-09T23:29:11.557Z,3.38
2022-08-09T23:31:39.361Z,3.53
2022-08-09T23:34:07.005Z,3.55
2022-08-09T23:36:35.399Z,4.07
2022-08-09T23:39:04.932Z,3.60
2022-08-09T23:41:32.261Z,4.10
2022-08-09T23:44:01.117Z,3.83
2022-08-09T23:46:29.705Z,3.90
2022-08-09T23:48:57.980Z,3.83
2022-08-09T23:51:26.020Z,3.10
2022-08-09T23:53:55.354Z,3.63
2022-08-09T23:56:53.378Z,3.63
2022-08-09T23:59:21.847Z,3.40
